Slagle, Missouri
Current Conditions -  °F | °C
As of 2:52 PM on Saturday 22 Nov 2014 (Local Time) from KSGF Reporting Station
Overcast Overcast  
Wind Chill: 54°   Ceiling: 900
Heat Index: 54°   Visibility: 10mi
Dew Point: 52°   Wind: 14mph
Humidity: 93%   Direction: 170°S
Pressure: 29.92"   Gusts: 23mph
Location:  37.6066°N, 93.4143°W
Report Text: KSGF 222052Z 17012G20KT 10SM OVC009 12/11 A2992 RMK AO2 RAE32 CIG 007V012 SLP130 P0003 60011 T01220111 58030
Loading
Personal Weather Stations






























Interactive Weather Map New forecast layout! Learn more

10-Day Weather Forecast

Advertisements
Track Severe Weather on mobile